Aberdeen, AR

4:01 AM CST on November 21, 2014 (GMT -0600)
Stuttgart Municipal | Change Station
CLOSE
Current Station
Airport
Location: Stuttgart,
Elevation: 223 ft
Nearby Weather Stations

Elev 223 ft 34.60 °N, 91.57 °W | Updated 6 minutes ago

Overcast
Overcast
41 °F
Feels Like 36 °F
N
8
Wind Variable Wind from ENE

Today
High -- | Low -- °F
--% Chance of Precip.
Yesterday
High -- | Low -- °F
Precip. -- in
6:44 AM 4:57 PM
Waning Crescent, 1% visible
Pressure 30.24 in
Visibility 6.0 miles
Clouds Scattered Clouds 2700 ft
Mostly Cloudy 3400 ft
Overcast 5000 ft
Windchill 36 °F
Dew Point 37 °F
Humidity 87%
Rainfall 0.17 in
Snow Depth Not available.
UV 0 out of 12
Pollen 1.70 out of 12
Air Quality Not available.
Flu Activity Not available.
METAR KSGT 210955Z AUTO 06007KT 6SM SCT027 BKN034 OVC050 05/03 A3024 RMK AO1 P0003

More Conditions Fewer Conditions

Pressure 30.24 in
Visibility 6.0 miles
Clouds Scattered Clouds 2700 ft
Mostly Cloudy 3400 ft
Overcast 5000 ft
Windchill 36 °F
Dew Point 37 °F
Humidity 87%
Rainfall 0.17 in
Snow Depth Not available.
UV 0 out of 12
Pollen 1.70 out of 12
Air Quality Not available.
Flu Activity Not available.
METAR KSGT 210955Z AUTO 06007KT 6SM SCT027 BKN034 OVC050 05/03 A3024 RMK AO1 P0003

More Conditions Fewer Conditions

10-Day Weather Forecast

Almanac

Astronomy

Nov. 21, 2014 Rise Set
Actual Time
Civil Twilight
Nautical Twilight
Astronomical Twilight
Moon
Length of Visible Light
Length of Day
Tomorrow will be .
, % of the Moon is Illuminated

Today's Extremes

State Highs State Lows

Community

WunderPhotos

Upload Photos

1,772,640 photos uploaded!

WunderBlogs® & News

Nearby

Air Quality

  Air Quality AQ Index Pollutant
Not available.

Snow Depth

Station Depth Elevation

Earthquake Activity

City Distance Mag. Time & Date
Minimum magnitude displayed is 2.5.

Coastal Water Temperatures

Place Temperature

Nearby Weather Stations